sensor_id;sensor_type;location;lat;lon;timestamp;P1;durP1;ratioP1;P2;durP2;ratioP2
34928;SDS011;21133;48.048;7.724;2023-02-14T00:02:02;6.40;;;5.90;;
34928;SDS011;21133;48.048;7.724;2023-02-14T00:04:28;4.93;;;4.73;;
34928;SDS011;21133;48.048;7.724;2023-02-14T00:06:55;6.07;;;5.77;;
34928;SDS011;21133;48.048;7.724;2023-02-14T00:09:21;7.10;;;6.60;;
34928;SDS011;21133;48.048;7.724;2023-02-14T00:11:47;5.90;;;5.50;;
34928;SDS011;21133;48.048;7.724;2023-02-14T00:14:13;6.40;;;5.80;;
34928;SDS011;21133;48.048;7.724;2023-02-14T00:16:57;6.53;;;6.13;;
34928;SDS011;21133;48.048;7.724;2023-02-14T00:19:23;5.73;;;5.33;;
34928;SDS011;21133;48.048;7.724;2023-02-14T00:21:49;5.17;;;4.97;;
34928;SDS011;21133;48.048;7.724;2023-02-14T00:24:17;6.50;;;6.10;;
34928;SDS011;21133;48.048;7.724;2023-02-14T00:26:44;5.43;;;5.13;;
34928;SDS011;21133;48.048;7.724;2023-02-14T00:29:11;4.90;;;4.70;;
34928;SDS011;21133;48.048;7.724;2023-02-14T00:31:37;5.87;;;5.37;;
34928;SDS011;21133;48.048;7.724;2023-02-14T00:34:04;4.60;;;4.43;;
34928;SDS011;21133;48.048;7.724;2023-02-14T00:36:30;5.83;;;5.53;;
34928;SDS011;21133;48.048;7.724;2023-02-14T00:38:56;5.23;;;5.00;;
34928;SDS011;21133;48.048;7.724;2023-02-14T00:41:22;6.07;;;5.67;;
34928;SDS011;21133;48.048;7.724;2023-02-14T00:43:49;4.90;;;4.70;;
34928;SDS011;21133;48.048;7.724;2023-02-14T00:46:15;5.03;;;4.83;;
34928;SDS011;21133;48.048;7.724;2023-02-14T00:48:41;5.80;;;5.50;;
34928;SDS011;21133;48.048;7.724;2023-02-14T00:51:08;6.20;;;5.77;;
34928;SDS011;21133;48.048;7.724;2023-02-14T00:53:34;4.80;;;4.60;;
34928;SDS011;21133;48.048;7.724;2023-02-14T00:56:00;4.53;;;4.43;;
34928;SDS011;21133;48.048;7.724;2023-02-14T00:58:27;4.70;;;4.60;;
34928;SDS011;21133;48.048;7.724;2023-02-14T01:00:53;4.63;;;4.40;;
34928;SDS011;21133;48.048;7.724;2023-02-14T01:03:19;5.63;;;5.27;;
34928;SDS011;21133;48.048;7.724;2023-02-14T01:05:45;5.23;;;5.00;;
34928;SDS011;21133;48.048;7.724;2023-02-14T01:08:11;4.67;;;4.37;;
34928;SDS011;21133;48.048;7.724;2023-02-14T01:10:38;5.20;;;4.80;;
34928;SDS011;21133;48.048;7.724;2023-02-14T01:13:04;5.57;;;5.33;;
34928;SDS011;21133;48.048;7.724;2023-02-14T01:15:30;5.10;;;4.80;;
34928;SDS011;21133;48.048;7.724;2023-02-14T01:17:58;4.43;;;4.20;;
34928;SDS011;21133;48.048;7.724;2023-02-14T01:20:24;4.40;;;4.20;;
34928;SDS011;21133;48.048;7.724;2023-02-14T01:22:50;4.40;;;4.20;;
34928;SDS011;21133;48.048;7.724;2023-02-14T01:25:16;4.43;;;4.20;;
34928;SDS011;21133;48.048;7.724;2023-02-14T01:27:42;4.63;;;4.40;;
34928;SDS011;21133;48.048;7.724;2023-02-14T01:30:08;3.50;;;3.50;;
34928;SDS011;21133;48.048;7.724;2023-02-14T01:32:35;3.87;;;3.63;;
34928;SDS011;21133;48.048;7.724;2023-02-14T01:35:01;4.00;;;3.90;;
34928;SDS011;21133;48.048;7.724;2023-02-14T01:37:27;3.67;;;3.57;;
34928;SDS011;21133;48.048;7.724;2023-02-14T01:39:54;3.87;;;3.73;;
34928;SDS011;21133;48.048;7.724;2023-02-14T01:42:20;4.03;;;3.73;;
34928;SDS011;21133;48.048;7.724;2023-02-14T01:47:13;3.60;;;3.57;;
34928;SDS011;21133;48.048;7.724;2023-02-14T01:49:42;4.37;;;4.17;;
34928;SDS011;21133;48.048;7.724;2023-02-14T01:52:11;4.03;;;3.93;;
34928;SDS011;21133;48.048;7.724;2023-02-14T01:54:41;4.00;;;3.90;;
34928;SDS011;21133;48.048;7.724;2023-02-14T01:57:09;3.93;;;3.83;;
34928;SDS011;21133;48.048;7.724;2023-02-14T01:59:39;4.63;;;4.33;;
34928;SDS011;21133;48.048;7.724;2023-02-14T02:02:06;4.37;;;4.27;;
34928;SDS011;21133;48.048;7.724;2023-02-14T02:04:34;3.90;;;3.80;;
34928;SDS011;21133;48.048;7.724;2023-02-14T02:07:02;3.77;;;3.67;;
34928;SDS011;21133;48.048;7.724;2023-02-14T02:09:33;3.77;;;3.63;;
34928;SDS011;21133;48.048;7.724;2023-02-14T02:12:00;3.87;;;3.80;;
34928;SDS011;21133;48.048;7.724;2023-02-14T02:14:27;4.27;;;4.17;;
34928;SDS011;21133;48.048;7.724;2023-02-14T02:32:38;5.40;;;5.10;;
34928;SDS011;21133;48.048;7.724;2023-02-14T02:35:21;4.13;;;4.03;;
34928;SDS011;21133;48.048;7.724;2023-02-14T02:43:25;4.80;;;4.60;;
34928;SDS011;21133;48.048;7.724;2023-02-14T02:48:42;3.93;;;3.73;;
34928;SDS011;21133;48.048;7.724;2023-02-14T02:51:11;4.50;;;4.20;;
34928;SDS011;21133;48.048;7.724;2023-02-14T02:54:02;3.50;;;3.40;;
34928;SDS011;21133;48.048;7.724;2023-02-14T02:56:33;3.80;;;3.70;;
34928;SDS011;21133;48.048;7.724;2023-02-14T02:59:11;4.03;;;3.83;;
34928;SDS011;21133;48.048;7.724;2023-02-14T03:01:43;4.47;;;4.10;;
34928;SDS011;21133;48.048;7.724;2023-02-14T03:04:11;4.10;;;3.90;;
34928;SDS011;21133;48.048;7.724;2023-02-14T03:06:57;3.90;;;3.80;;
34928;SDS011;21133;48.048;7.724;2023-02-14T03:20:07;5.17;;;4.87;;
34928;SDS011;21133;48.048;7.724;2023-02-14T03:22:50;5.70;;;5.30;;
34928;SDS011;21133;48.048;7.724;2023-02-14T03:25:27;5.97;;;5.67;;
34928;SDS011;21133;48.048;7.724;2023-02-14T03:27:58;4.90;;;4.60;;
34928;SDS011;21133;48.048;7.724;2023-02-14T03:33:21;5.00;;;4.70;;
34928;SDS011;21133;48.048;7.724;2023-02-14T03:35:55;4.87;;;4.50;;
34928;SDS011;21133;48.048;7.724;2023-02-14T03:38:33;4.73;;;4.63;;
34928;SDS011;21133;48.048;7.724;2023-02-14T03:41:02;4.53;;;4.33;;
34928;SDS011;21133;48.048;7.724;2023-02-14T03:43:32;5.20;;;4.90;;
34928;SDS011;21133;48.048;7.724;2023-02-14T03:46:04;6.13;;;5.63;;
34928;SDS011;21133;48.048;7.724;2023-02-14T03:48:31;5.53;;;5.20;;
34928;SDS011;21133;48.048;7.724;2023-02-14T03:50:58;5.40;;;5.20;;
34928;SDS011;21133;48.048;7.724;2023-02-14T03:53:25;5.00;;;4.80;;
34928;SDS011;21133;48.048;7.724;2023-02-14T03:58:25;5.50;;;5.10;;
34928;SDS011;21133;48.048;7.724;2023-02-14T04:00:54;5.30;;;5.00;;
34928;SDS011;21133;48.048;7.724;2023-02-14T04:03:22;6.20;;;5.90;;
34928;SDS011;21133;48.048;7.724;2023-02-14T04:05:49;5.27;;;5.00;;
34928;SDS011;21133;48.048;7.724;2023-02-14T04:08:19;7.47;;;5.37;;
34928;SDS011;21133;48.048;7.724;2023-02-14T04:10:45;5.50;;;5.20;;
34928;SDS011;21133;48.048;7.724;2023-02-14T04:13:11;5.23;;;4.93;;
34928;SDS011;21133;48.048;7.724;2023-02-14T04:15:37;5.03;;;4.67;;
34928;SDS011;21133;48.048;7.724;2023-02-14T04:18:03;5.00;;;4.80;;
34928;SDS011;21133;48.048;7.724;2023-02-14T04:20:48;5.10;;;5.00;;
34928;SDS011;21133;48.048;7.724;2023-02-14T04:23:14;4.57;;;4.37;;
34928;SDS011;21133;48.048;7.724;2023-02-14T04:25:40;4.57;;;4.37;;
34928;SDS011;21133;48.048;7.724;2023-02-14T04:28:07;4.13;;;4.03;;
34928;SDS011;21133;48.048;7.724;2023-02-14T04:30:33;4.90;;;4.73;;
34928;SDS011;21133;48.048;7.724;2023-02-14T04:32:59;4.40;;;4.30;;
34928;SDS011;21133;48.048;7.724;2023-02-14T04:35:25;4.60;;;4.50;;
34928;SDS011;21133;48.048;7.724;2023-02-14T04:37:50;4.50;;;4.30;;
34928;SDS011;21133;48.048;7.724;2023-02-14T04:40:16;5.50;;;5.20;;
34928;SDS011;21133;48.048;7.724;2023-02-14T04:42:43;4.90;;;4.80;;
34928;SDS011;21133;48.048;7.724;2023-02-14T04:45:09;4.13;;;3.93;;
34928;SDS011;21133;48.048;7.724;2023-02-14T04:47:35;4.97;;;4.73;;
34928;SDS011;21133;48.048;7.724;2023-02-14T04:50:01;3.00;;;2.83;;
34928;SDS011;21133;48.048;7.724;2023-02-14T04:52:27;4.57;;;4.37;;
34928;SDS011;21133;48.048;7.724;2023-02-14T04:54:58;4.23;;;3.93;;
34928;SDS011;21133;48.048;7.724;2023-02-14T04:57:24;4.30;;;4.20;;
34928;SDS011;21133;48.048;7.724;2023-02-14T04:59:50;7.00;;;4.60;;
34928;SDS011;21133;48.048;7.724;2023-02-14T05:02:16;5.03;;;4.93;;
34928;SDS011;21133;48.048;7.724;2023-02-14T05:04:42;6.07;;;5.77;;
34928;SDS011;21133;48.048;7.724;2023-02-14T05:07:08;4.73;;;4.53;;
34928;SDS011;21133;48.048;7.724;2023-02-14T05:09:34;4.97;;;4.80;;
34928;SDS011;21133;48.048;7.724;2023-02-14T05:12:00;4.73;;;4.60;;
34928;SDS011;21133;48.048;7.724;2023-02-14T05:14:26;4.97;;;4.77;;
34928;SDS011;21133;48.048;7.724;2023-02-14T05:16:52;4.27;;;4.07;;
34928;SDS011;21133;48.048;7.724;2023-02-14T05:19:18;4.40;;;4.20;;
34928;SDS011;21133;48.048;7.724;2023-02-14T05:21:44;4.30;;;4.20;;
34928;SDS011;21133;48.048;7.724;2023-02-14T05:24:11;8.10;;;7.33;;
34928;SDS011;21133;48.048;7.724;2023-02-14T05:26:37;5.60;;;5.30;;
34928;SDS011;21133;48.048;7.724;2023-02-14T05:29:03;6.13;;;5.70;;
34928;SDS011;21133;48.048;7.724;2023-02-14T05:31:29;17.20;;;15.50;;
34928;SDS011;21133;48.048;7.724;2023-02-14T05:33:55;6.30;;;5.80;;
34928;SDS011;21133;48.048;7.724;2023-02-14T05:36:21;5.97;;;5.57;;
34928;SDS011;21133;48.048;7.724;2023-02-14T05:38:47;5.53;;;5.23;;
34928;SDS011;21133;48.048;7.724;2023-02-14T05:41:13;5.03;;;4.70;;
34928;SDS011;21133;48.048;7.724;2023-02-14T05:43:39;4.80;;;4.60;;
34928;SDS011;21133;48.048;7.724;2023-02-14T05:46:05;7.20;;;6.60;;
34928;SDS011;21133;48.048;7.724;2023-02-14T05:48:31;5.23;;;4.93;;
34928;SDS011;21133;48.048;7.724;2023-02-14T05:50:57;4.47;;;4.30;;
34928;SDS011;21133;48.048;7.724;2023-02-14T05:53:27;5.07;;;4.87;;
34928;SDS011;21133;48.048;7.724;2023-02-14T05:55:53;4.73;;;4.43;;
34928;SDS011;21133;48.048;7.724;2023-02-14T05:58:19;3.20;;;3.10;;
34928;SDS011;21133;48.048;7.724;2023-02-14T06:00:45;4.43;;;4.23;;
34928;SDS011;21133;48.048;7.724;2023-02-14T06:03:11;5.23;;;4.83;;
34928;SDS011;21133;48.048;7.724;2023-02-14T06:05:36;4.47;;;4.30;;
34928;SDS011;21133;48.048;7.724;2023-02-14T06:08:02;4.77;;;4.57;;
34928;SDS011;21133;48.048;7.724;2023-02-14T06:10:28;3.93;;;3.77;;
34928;SDS011;21133;48.048;7.724;2023-02-14T06:12:55;5.27;;;4.97;;
34928;SDS011;21133;48.048;7.724;2023-02-14T06:15:21;4.23;;;4.03;;
34928;SDS011;21133;48.048;7.724;2023-02-14T06:17:53;5.47;;;5.07;;
34928;SDS011;21133;48.048;7.724;2023-02-14T06:20:20;4.87;;;4.60;;
34928;SDS011;21133;48.048;7.724;2023-02-14T06:22:46;5.60;;;5.20;;
34928;SDS011;21133;48.048;7.724;2023-02-14T06:25:12;4.47;;;4.30;;
34928;SDS011;21133;48.048;7.724;2023-02-14T06:27:38;4.37;;;4.17;;
34928;SDS011;21133;48.048;7.724;2023-02-14T06:30:04;4.10;;;3.90;;
34928;SDS011;21133;48.048;7.724;2023-02-14T06:32:31;3.57;;;3.43;;
34928;SDS011;21133;48.048;7.724;2023-02-14T06:34:56;4.00;;;3.80;;
34928;SDS011;21133;48.048;7.724;2023-02-14T06:37:22;4.90;;;4.47;;
34928;SDS011;21133;48.048;7.724;2023-02-14T06:39:48;4.80;;;4.60;;
34928;SDS011;21133;48.048;7.724;2023-02-14T06:42:14;5.00;;;4.80;;
34928;SDS011;21133;48.048;7.724;2023-02-14T06:44:40;5.77;;;5.07;;
34928;SDS011;21133;48.048;7.724;2023-02-14T06:47:06;4.67;;;4.27;;
34928;SDS011;21133;48.048;7.724;2023-02-14T06:49:32;5.23;;;4.97;;
34928;SDS011;21133;48.048;7.724;2023-02-14T06:51:59;4.00;;;3.90;;
34928;SDS011;21133;48.048;7.724;2023-02-14T06:54:24;5.43;;;5.13;;
34928;SDS011;21133;48.048;7.724;2023-02-14T06:56:50;4.17;;;4.03;;
34928;SDS011;21133;48.048;7.724;2023-02-14T06:59:16;4.83;;;4.50;;
34928;SDS011;21133;48.048;7.724;2023-02-14T07:01:42;5.10;;;4.70;;
34928;SDS011;21133;48.048;7.724;2023-02-14T07:04:08;7.20;;;5.87;;
34928;SDS011;21133;48.048;7.724;2023-02-14T07:06:35;6.60;;;6.03;;
34928;SDS011;21133;48.048;7.724;2023-02-14T07:09:01;5.80;;;5.30;;
34928;SDS011;21133;48.048;7.724;2023-02-14T07:11:28;5.77;;;5.37;;
34928;SDS011;21133;48.048;7.724;2023-02-14T07:13:54;4.97;;;4.67;;
34928;SDS011;21133;48.048;7.724;2023-02-14T07:16:20;5.40;;;5.20;;
34928;SDS011;21133;48.048;7.724;2023-02-14T07:18:46;4.30;;;4.07;;
34928;SDS011;21133;48.048;7.724;2023-02-14T07:21:12;5.87;;;5.47;;
34928;SDS011;21133;48.048;7.724;2023-02-14T07:23:38;6.17;;;5.70;;
34928;SDS011;21133;48.048;7.724;2023-02-14T07:26:04;6.10;;;5.70;;
34928;SDS011;21133;48.048;7.724;2023-02-14T07:28:30;5.00;;;4.77;;
34928;SDS011;21133;48.048;7.724;2023-02-14T07:30:58;6.13;;;5.63;;
34928;SDS011;21133;48.048;7.724;2023-02-14T07:33:24;6.60;;;6.00;;
34928;SDS011;21133;48.048;7.724;2023-02-14T07:35:50;6.50;;;5.90;;
34928;SDS011;21133;48.048;7.724;2023-02-14T07:38:16;5.13;;;4.83;;
34928;SDS011;21133;48.048;7.724;2023-02-14T07:40:42;6.60;;;6.00;;
34928;SDS011;21133;48.048;7.724;2023-02-14T07:43:08;6.97;;;6.50;;
34928;SDS011;21133;48.048;7.724;2023-02-14T07:45:34;6.93;;;6.33;;
34928;SDS011;21133;48.048;7.724;2023-02-14T07:48:00;6.20;;;5.67;;
34928;SDS011;21133;48.048;7.724;2023-02-14T07:50:27;6.13;;;5.70;;
34928;SDS011;21133;48.048;7.724;2023-02-14T07:52:53;8.37;;;7.10;;
34928;SDS011;21133;48.048;7.724;2023-02-14T07:55:19;8.07;;;7.00;;
34928;SDS011;21133;48.048;7.724;2023-02-14T07:57:47;6.80;;;6.40;;
34928;SDS011;21133;48.048;7.724;2023-02-14T08:00:13;8.47;;;7.70;;
34928;SDS011;21133;48.048;7.724;2023-02-14T08:02:40;7.50;;;6.87;;
34928;SDS011;21133;48.048;7.724;2023-02-14T08:05:07;5.93;;;5.43;;
34928;SDS011;21133;48.048;7.724;2023-02-14T08:07:33;11.23;;;8.40;;
34928;SDS011;21133;48.048;7.724;2023-02-14T08:09:59;6.60;;;6.10;;
34928;SDS011;21133;48.048;7.724;2023-02-14T08:12:25;6.60;;;6.10;;
34928;SDS011;21133;48.048;7.724;2023-02-14T08:15:09;6.00;;;5.60;;
34928;SDS011;21133;48.048;7.724;2023-02-14T08:17:57;6.10;;;5.70;;
34928;SDS011;21133;48.048;7.724;2023-02-14T08:20:23;12.73;;;6.67;;
34928;SDS011;21133;48.048;7.724;2023-02-14T08:22:49;7.77;;;6.83;;
34928;SDS011;21133;48.048;7.724;2023-02-14T08:25:15;6.43;;;5.93;;
34928;SDS011;21133;48.048;7.724;2023-02-14T08:27:41;6.63;;;6.10;;
34928;SDS011;21133;48.048;7.724;2023-02-14T08:30:07;14.63;;;7.93;;
34928;SDS011;21133;48.048;7.724;2023-02-14T08:32:33;8.20;;;7.50;;
34928;SDS011;21133;48.048;7.724;2023-02-14T08:34:59;7.60;;;6.90;;
34928;SDS011;21133;48.048;7.724;2023-02-14T08:37:25;8.70;;;7.97;;
34928;SDS011;21133;48.048;7.724;2023-02-14T08:39:51;7.30;;;6.60;;
34928;SDS011;21133;48.048;7.724;2023-02-14T08:42:17;7.50;;;6.90;;
34928;SDS011;21133;48.048;7.724;2023-02-14T08:44:43;7.57;;;6.90;;
34928;SDS011;21133;48.048;7.724;2023-02-14T08:47:09;8.40;;;7.53;;
34928;SDS011;21133;48.048;7.724;2023-02-14T08:49:35;8.13;;;7.37;;
34928;SDS011;21133;48.048;7.724;2023-02-14T08:52:01;7.87;;;7.17;;
34928;SDS011;21133;48.048;7.724;2023-02-14T08:54:27;7.30;;;6.60;;
34928;SDS011;21133;48.048;7.724;2023-02-14T08:56:52;12.40;;;7.77;;
34928;SDS011;21133;48.048;7.724;2023-02-14T08:59:18;9.33;;;8.00;;
34928;SDS011;21133;48.048;7.724;2023-02-14T09:01:44;9.40;;;8.30;;
34928;SDS011;21133;48.048;7.724;2023-02-14T09:04:10;9.00;;;8.20;;
34928;SDS011;21133;48.048;7.724;2023-02-14T09:06:37;10.57;;;8.20;;
34928;SDS011;21133;48.048;7.724;2023-02-14T09:09:04;9.77;;;8.70;;
34928;SDS011;21133;48.048;7.724;2023-02-14T09:11:30;10.70;;;7.97;;
34928;SDS011;21133;48.048;7.724;2023-02-14T09:13:56;9.00;;;8.10;;
34928;SDS011;21133;48.048;7.724;2023-02-14T09:16:23;9.83;;;8.83;;
34928;SDS011;21133;48.048;7.724;2023-02-14T09:18:49;11.20;;;9.53;;
34928;SDS011;21133;48.048;7.724;2023-02-14T09:21:18;9.77;;;8.13;;
34928;SDS011;21133;48.048;7.724;2023-02-14T09:23:44;15.63;;;10.30;;
34928;SDS011;21133;48.048;7.724;2023-02-14T09:26:11;12.03;;;9.23;;
34928;SDS011;21133;48.048;7.724;2023-02-14T09:28:37;8.90;;;7.97;;
34928;SDS011;21133;48.048;7.724;2023-02-14T09:31:21;11.30;;;9.00;;
34928;SDS011;21133;48.048;7.724;2023-02-14T09:33:48;11.17;;;9.17;;
34928;SDS011;21133;48.048;7.724;2023-02-14T09:36:33;9.83;;;8.83;;
34928;SDS011;21133;48.048;7.724;2023-02-14T09:39:18;13.87;;;10.37;;
34928;SDS011;21133;48.048;7.724;2023-02-14T09:44:28;13.50;;;10.20;;
34928;SDS011;21133;48.048;7.724;2023-02-14T09:46:57;12.50;;;10.07;;
34928;SDS011;21133;48.048;7.724;2023-02-14T09:49:28;18.70;;;11.00;;
34928;SDS011;21133;48.048;7.724;2023-02-14T09:51:55;11.50;;;9.97;;
34928;SDS011;21133;48.048;7.724;2023-02-14T09:54:23;11.43;;;10.20;;
34928;SDS011;21133;48.048;7.724;2023-02-14T09:56:57;11.27;;;9.40;;
34928;SDS011;21133;48.048;7.724;2023-02-14T09:59:32;12.20;;;10.27;;
34928;SDS011;21133;48.048;7.724;2023-02-14T10:02:11;17.20;;;11.77;;
34928;SDS011;21133;48.048;7.724;2023-02-14T10:05:02;16.57;;;11.30;;
34928;SDS011;21133;48.048;7.724;2023-02-14T10:13:04;13.90;;;10.97;;
34928;SDS011;21133;48.048;7.724;2023-02-14T10:15:35;17.83;;;12.60;;
34928;SDS011;21133;48.048;7.724;2023-02-14T10:18:04;15.57;;;11.50;;
34928;SDS011;21133;48.048;7.724;2023-02-14T10:26:15;20.17;;;13.10;;
34928;SDS011;21133;48.048;7.724;2023-02-14T10:28:43;17.40;;;13.00;;
34928;SDS011;21133;48.048;7.724;2023-02-14T10:32:10;18.73;;;12.97;;
34928;SDS011;21133;48.048;7.724;2023-02-14T10:34:14;17.20;;;12.30;;
34928;SDS011;21133;48.048;7.724;2023-02-14T10:44:16;25.20;;;15.10;;
34928;SDS011;21133;48.048;7.724;2023-02-14T10:50:15;21.73;;;15.20;;
34928;SDS011;21133;48.048;7.724;2023-02-14T10:52:25;23.73;;;15.80;;
34928;SDS011;21133;48.048;7.724;2023-02-14T10:54:54;19.53;;;12.77;;
34928;SDS011;21133;48.048;7.724;2023-02-14T10:57:28;14.00;;;12.20;;
34928;SDS011;21133;48.048;7.724;2023-02-14T11:00:00;18.60;;;13.57;;
34928;SDS011;21133;48.048;7.724;2023-02-14T11:02:40;19.13;;;14.50;;
34928;SDS011;21133;48.048;7.724;2023-02-14T11:05:23;23.57;;;15.67;;
34928;SDS011;21133;48.048;7.724;2023-02-14T11:07:49;16.43;;;11.60;;
34928;SDS011;21133;48.048;7.724;2023-02-14T11:10:15;45.23;;;24.33;;
34928;SDS011;21133;48.048;7.724;2023-02-14T11:12:42;23.90;;;16.07;;
34928;SDS011;21133;48.048;7.724;2023-02-14T11:17:50;13.00;;;11.33;;
34928;SDS011;21133;48.048;7.724;2023-02-14T11:20:31;14.90;;;11.97;;
34928;SDS011;21133;48.048;7.724;2023-02-14T11:22:57;17.43;;;12.47;;
34928;SDS011;21133;48.048;7.724;2023-02-14T11:25:24;21.60;;;14.87;;
34928;SDS011;21133;48.048;7.724;2023-02-14T11:28:00;21.60;;;14.00;;
34928;SDS011;21133;48.048;7.724;2023-02-14T11:30:29;16.03;;;12.53;;
34928;SDS011;21133;48.048;7.724;2023-02-14T11:32:55;17.07;;;12.73;;
34928;SDS011;21133;48.048;7.724;2023-02-14T11:35:22;16.60;;;12.33;;
34928;SDS011;21133;48.048;7.724;2023-02-14T11:37:51;18.80;;;14.47;;
34928;SDS011;21133;48.048;7.724;2023-02-14T11:40:36;17.20;;;12.93;;
34928;SDS011;21133;48.048;7.724;2023-02-14T11:45:35;17.50;;;13.10;;
34928;SDS011;21133;48.048;7.724;2023-02-14T11:50:36;16.07;;;11.97;;
34928;SDS011;21133;48.048;7.724;2023-02-14T11:53:03;14.67;;;12.50;;
34928;SDS011;21133;48.048;7.724;2023-02-14T11:55:30;28.47;;;16.00;;
34928;SDS011;21133;48.048;7.724;2023-02-14T11:57:57;22.60;;;15.10;;
34928;SDS011;21133;48.048;7.724;2023-02-14T12:00:26;30.53;;;14.17;;
34928;SDS011;21133;48.048;7.724;2023-02-14T12:02:55;21.17;;;14.13;;
34928;SDS011;21133;48.048;7.724;2023-02-14T12:05:25;26.07;;;16.17;;
34928;SDS011;21133;48.048;7.724;2023-02-14T12:08:13;44.20;;;25.23;;
34928;SDS011;21133;48.048;7.724;2023-02-14T12:10:38;19.30;;;13.80;;
34928;SDS011;21133;48.048;7.724;2023-02-14T12:20:41;15.27;;;11.87;;
34928;SDS011;21133;48.048;7.724;2023-02-14T12:23:09;12.40;;;10.50;;
34928;SDS011;21133;48.048;7.724;2023-02-14T12:28:31;12.50;;;11.20;;
34928;SDS011;21133;48.048;7.724;2023-02-14T12:31:06;13.90;;;11.17;;
34928;SDS011;21133;48.048;7.724;2023-02-14T12:33:32;17.83;;;11.10;;
34928;SDS011;21133;48.048;7.724;2023-02-14T12:36:03;11.80;;;9.80;;
34928;SDS011;21133;48.048;7.724;2023-02-14T12:53:46;20.80;;;13.30;;
34928;SDS011;21133;48.048;7.724;2023-02-14T12:56:19;18.50;;;10.90;;
34928;SDS011;21133;48.048;7.724;2023-02-14T13:04:30;20.93;;;12.40;;
34928;SDS011;21133;48.048;7.724;2023-02-14T13:09:54;19.10;;;14.47;;
34928;SDS011;21133;48.048;7.724;2023-02-14T13:17:42;19.10;;;13.30;;
34928;SDS011;21133;48.048;7.724;2023-02-14T13:22:54;21.30;;;15.43;;
34928;SDS011;21133;48.048;7.724;2023-02-14T13:25:24;22.73;;;15.80;;
34928;SDS011;21133;48.048;7.724;2023-02-14T13:27:55;47.60;;;16.00;;
34928;SDS011;21133;48.048;7.724;2023-02-14T13:32:48;22.43;;;13.87;;
34928;SDS011;21133;48.048;7.724;2023-02-14T13:35:15;21.83;;;15.77;;
34928;SDS011;21133;48.048;7.724;2023-02-14T13:37:43;39.53;;;22.70;;
34928;SDS011;21133;48.048;7.724;2023-02-14T13:40:15;24.00;;;15.67;;
34928;SDS011;21133;48.048;7.724;2023-02-14T13:50:32;26.60;;;17.33;;
34928;SDS011;21133;48.048;7.724;2023-02-14T13:52:59;31.50;;;17.77;;
34928;SDS011;21133;48.048;7.724;2023-02-14T13:55:26;37.33;;;21.80;;
34928;SDS011;21133;48.048;7.724;2023-02-14T13:58:06;30.50;;;20.00;;
34928;SDS011;21133;48.048;7.724;2023-02-14T14:00:45;33.43;;;19.00;;
34928;SDS011;21133;48.048;7.724;2023-02-14T14:03:51;29.07;;;18.80;;
34928;SDS011;21133;48.048;7.724;2023-02-14T14:06:02;36.87;;;23.20;;
34928;SDS011;21133;48.048;7.724;2023-02-14T14:10:56;37.03;;;22.63;;
34928;SDS011;21133;48.048;7.724;2023-02-14T14:18:52;40.00;;;22.03;;
34928;SDS011;21133;48.048;7.724;2023-02-14T14:24:13;33.90;;;19.97;;
34928;SDS011;21133;48.048;7.724;2023-02-14T14:26:43;35.20;;;22.30;;
34928;SDS011;21133;48.048;7.724;2023-02-14T14:31:41;40.27;;;20.93;;
34928;SDS011;21133;48.048;7.724;2023-02-14T14:34:13;38.10;;;20.57;;
34928;SDS011;21133;48.048;7.724;2023-02-14T14:36:40;34.57;;;21.47;;
34928;SDS011;21133;48.048;7.724;2023-02-14T14:39:07;28.93;;;18.80;;
34928;SDS011;21133;48.048;7.724;2023-02-14T14:41:34;32.53;;;20.37;;
34928;SDS011;21133;48.048;7.724;2023-02-14T14:44:00;34.10;;;21.57;;
34928;SDS011;21133;48.048;7.724;2023-02-14T14:46:26;34.00;;;21.00;;
34928;SDS011;21133;48.048;7.724;2023-02-14T14:48:52;41.33;;;23.97;;
34928;SDS011;21133;48.048;7.724;2023-02-14T14:51:24;37.93;;;21.30;;
34928;SDS011;21133;48.048;7.724;2023-02-14T14:56:17;42.13;;;24.87;;
34928;SDS011;21133;48.048;7.724;2023-02-14T14:58:44;41.20;;;23.43;;
34928;SDS011;21133;48.048;7.724;2023-02-14T15:01:11;42.10;;;21.80;;
34928;SDS011;21133;48.048;7.724;2023-02-14T15:03:39;45.33;;;22.07;;
34928;SDS011;21133;48.048;7.724;2023-02-14T15:08:31;38.40;;;22.73;;
34928;SDS011;21133;48.048;7.724;2023-02-14T15:16:24;33.40;;;21.10;;
34928;SDS011;21133;48.048;7.724;2023-02-14T15:18:51;39.17;;;20.60;;
34928;SDS011;21133;48.048;7.724;2023-02-14T15:21:19;42.30;;;23.17;;
34928;SDS011;21133;48.048;7.724;2023-02-14T15:23:45;35.87;;;21.10;;
34928;SDS011;21133;48.048;7.724;2023-02-14T15:26:15;40.27;;;24.30;;
34928;SDS011;21133;48.048;7.724;2023-02-14T15:28:43;36.60;;;23.13;;
34928;SDS011;21133;48.048;7.724;2023-02-14T15:31:09;43.93;;;23.97;;
34928;SDS011;21133;48.048;7.724;2023-02-14T15:33:35;39.80;;;22.27;;
34928;SDS011;21133;48.048;7.724;2023-02-14T15:36:02;32.57;;;19.80;;
34928;SDS011;21133;48.048;7.724;2023-02-14T15:38:29;29.20;;;18.13;;
34928;SDS011;21133;48.048;7.724;2023-02-14T15:40:55;33.33;;;19.70;;
34928;SDS011;21133;48.048;7.724;2023-02-14T15:45:52;39.00;;;21.80;;
34928;SDS011;21133;48.048;7.724;2023-02-14T15:50:51;38.23;;;21.17;;
34928;SDS011;21133;48.048;7.724;2023-02-14T15:55:43;27.57;;;19.70;;
34928;SDS011;21133;48.048;7.724;2023-02-14T15:58:14;34.77;;;20.67;;
34928;SDS011;21133;48.048;7.724;2023-02-14T16:00:44;33.27;;;21.10;;
34928;SDS011;21133;48.048;7.724;2023-02-14T16:03:11;25.77;;;18.70;;
34928;SDS011;21133;48.048;7.724;2023-02-14T16:05:47;37.20;;;20.87;;
34928;SDS011;21133;48.048;7.724;2023-02-14T16:08:26;41.23;;;23.77;;
34928;SDS011;21133;48.048;7.724;2023-02-14T16:10:58;29.17;;;17.70;;
34928;SDS011;21133;48.048;7.724;2023-02-14T16:13:31;41.60;;;23.20;;
34928;SDS011;21133;48.048;7.724;2023-02-14T16:18:34;40.67;;;22.60;;
34928;SDS011;21133;48.048;7.724;2023-02-14T16:23:42;37.80;;;22.40;;
34928;SDS011;21133;48.048;7.724;2023-02-14T16:26:08;39.60;;;21.80;;
34928;SDS011;21133;48.048;7.724;2023-02-14T16:28:35;48.63;;;24.63;;
34928;SDS011;21133;48.048;7.724;2023-02-14T16:31:02;37.30;;;21.03;;
34928;SDS011;21133;48.048;7.724;2023-02-14T16:33:31;31.90;;;14.87;;
34928;SDS011;21133;48.048;7.724;2023-02-14T16:36:13;25.60;;;17.67;;
34928;SDS011;21133;48.048;7.724;2023-02-14T16:38:41;30.10;;;19.47;;
34928;SDS011;21133;48.048;7.724;2023-02-14T16:41:12;43.23;;;22.83;;
34928;SDS011;21133;48.048;7.724;2023-02-14T16:43:39;31.57;;;20.57;;
34928;SDS011;21133;48.048;7.724;2023-02-14T16:46:08;34.30;;;20.13;;
34928;SDS011;21133;48.048;7.724;2023-02-14T16:48:34;32.37;;;20.30;;
34928;SDS011;21133;48.048;7.724;2023-02-14T16:51:00;33.30;;;18.27;;
34928;SDS011;21133;48.048;7.724;2023-02-14T16:53:26;27.00;;;18.30;;
34928;SDS011;21133;48.048;7.724;2023-02-14T16:55:53;24.43;;;16.53;;
34928;SDS011;21133;48.048;7.724;2023-02-14T16:58:20;31.60;;;19.17;;
34928;SDS011;21133;48.048;7.724;2023-02-14T17:00:48;28.87;;;19.37;;
34928;SDS011;21133;48.048;7.724;2023-02-14T17:03:14;27.73;;;17.60;;
34928;SDS011;21133;48.048;7.724;2023-02-14T17:05:40;28.27;;;18.23;;
34928;SDS011;21133;48.048;7.724;2023-02-14T17:08:07;30.33;;;18.80;;
34928;SDS011;21133;48.048;7.724;2023-02-14T17:10:35;39.50;;;22.73;;
34928;SDS011;21133;48.048;7.724;2023-02-14T17:13:01;37.13;;;21.00;;
34928;SDS011;21133;48.048;7.724;2023-02-14T17:15:28;39.23;;;21.40;;
34928;SDS011;21133;48.048;7.724;2023-02-14T17:18:15;34.30;;;21.03;;
34928;SDS011;21133;48.048;7.724;2023-02-14T17:20:40;27.13;;;18.40;;
34928;SDS011;21133;48.048;7.724;2023-02-14T17:23:07;35.93;;;19.67;;
34928;SDS011;21133;48.048;7.724;2023-02-14T17:25:33;29.30;;;18.80;;
34928;SDS011;21133;48.048;7.724;2023-02-14T17:27:59;20.43;;;14.60;;